Time;durP1;ratioP1;P1;durP2;ratioP2;P2;SDS_P1;SDS_P2;PMS_P1;PMS_P2;Temp;Humidity;BMP_temperature;BMP_pressure;BME280_temperature;BME280_humidity;BME280_pressure;Samples;Min_cycle;Max_cycle;Signal;HPM_P1;HPM_P2
2023/04/05 00:03:16;;;;;;;16.05;12.55;;;;;;;2.78;86.78;102516.69;10375777;28;20065;-76
2023/04/05 00:08:22;;;;;;;15.63;12.18;;;;;;;2.73;86.34;102511.66;10357533;28;20062;-76
2023/04/05 00:13:23;;;;;;;52.72;23.35;;;;;;;2.61;86.66;102511.66;10375371;28;20041;-78
2023/04/05 00:18:24;;;;;;;27.30;14.73;;;;;;;2.51;85.89;102508.75;10375772;28;20042;-76
2023/04/05 00:23:25;;;;;;;21.02;15.13;;;;;;;2.49;87.66;102497.28;10391161;28;20092;-77
2023/04/05 00:28:25;;;;;;;26.40;15.00;;;;;;;2.47;87.71;102496.56;10373172;28;20079;-77
2023/04/05 00:33:26;;;;;;;19.23;13.77;;;;;;;2.47;87.62;102492.06;10374689;28;20058;-76
2023/04/05 00:38:26;;;;;;;19.70;14.80;;;;;;;2.41;86.89;102494.31;10373931;28;20049;-76
2023/04/05 00:43:27;;;;;;;29.83;14.10;;;;;;;2.34;87.42;102493.88;10389512;28;20478;-75
2023/04/05 00:48:27;;;;;;;19.35;14.48;;;;;;;2.34;88.53;102493.88;10373813;28;20061;-79
2023/04/05 00:53:29;;;;;;;22.20;13.18;;;;;;;2.30;88.46;102489.69;10389917;28;20079;-76
2023/04/05 00:58:29;;;;;;;21.02;15.23;;;;;;;2.20;87.53;102480.56;10356443;28;20037;-76
2023/04/05 01:03:30;;;;;;;18.48;13.63;;;;;;;2.05;87.12;102472.66;10372784;28;20036;-75
2023/04/05 01:08:36;;;;;;;27.40;14.32;;;;;;;1.93;87.83;102476.13;10374684;28;20091;-75
2023/04/05 01:13:36;;;;;;;25.55;14.57;;;;;;;1.86;87.11;102473.03;10374977;28;20049;-76
2023/04/05 01:18:37;;;;;;;25.17;14.02;;;;;;;1.76;86.66;102471.06;10381063;28;20065;-76
2023/04/05 01:23:45;;;;;;;25.20;15.15;;;;;;;1.69;87.25;102467.06;10381629;28;20434;-76
2023/04/05 01:29:24;;;;;;;22.17;14.43;;;;;;;1.62;86.72;102462.13;10397718;28;20022;-76
2023/04/05 01:35:00;;;;;;;20.70;15.82;;;;;;;1.55;87.38;102452.81;10382105;28;20410;-76
2023/04/05 01:40:00;;;;;;;24.83;15.52;;;;;;;1.47;87.63;102446.25;10397031;28;20049;-76
2023/04/05 01:45:01;;;;;;;22.75;17.17;;;;;;;1.47;87.94;102447.16;10381363;28;20076;-75
2023/04/05 01:50:01;;;;;;;21.58;14.75;;;;;;;1.40;87.93;102432.47;10396201;28;20540;-77
2023/04/05 01:55:02;;;;;;;36.78;17.17;;;;;;;1.36;88.09;102433.63;10380603;28;20045;-75
2023/04/05 02:00:03;;;;;;;34.25;18.23;;;;;;;1.25;88.43;102423.66;10362868;28;20048;-75
2023/04/05 02:05:03;;;;;;;22.30;15.95;;;;;;;1.30;88.87;102415.34;10379060;28;20030;-76
2023/04/05 02:10:04;;;;;;;22.27;16.33;;;;;;;1.41;89.19;102409.31;10379970;28;20045;-76
2023/04/05 02:15:05;;;;;;;20.67;15.60;;;;;;;1.35;89.93;102405.25;10377855;28;20052;-76
2023/04/05 02:20:06;;;;;;;23.92;15.15;;;;;;;1.26;88.94;102403.16;10379724;28;20050;-77
2023/04/05 02:25:10;;;;;;;18.95;15.07;;;;;;;1.19;88.79;102404.53;10378662;28;20049;-76
2023/04/05 02:30:12;;;;;;;21.35;14.57;;;;;;;1.12;89.89;102399.59;10378411;28;20466;-75
2023/04/05 02:35:13;;;;;;;18.98;11.48;;;;;;;1.15;89.30;102399.38;10379230;28;20054;-76
2023/04/05 02:40:14;;;;;;;19.50;13.38;;;;;;;1.04;88.96;102390.34;10378889;28;20038;-76
2023/04/05 02:45:15;;;;;;;22.15;14.60;;;;;;;1.01;89.39;102401.22;10377320;28;20033;-75
2023/04/05 02:50:19;;;;;;;16.52;11.80;;;;;;;1.04;90.32;102401.88;10379025;28;20038;-78
2023/04/05 02:55:19;;;;;;;15.30;11.38;;;;;;;1.04;91.46;102396.53;10378095;28;20034;-77
2023/04/05 03:00:21;;;;;;;22.33;11.50;;;;;;;1.09;92.29;102382.94;10378329;28;20041;-75
2023/04/05 03:05:21;;;;;;;14.98;11.55;;;;;;;1.14;91.67;102383.47;10379278;28;20049;-76
2023/04/05 03:10:25;;;;;;;16.23;10.88;;;;;;;1.10;90.40;102388.16;10392916;28;20037;-76
2023/04/05 03:15:26;;;;;;;16.60;14.63;;;;;;;0.99;90.18;102377.34;10378013;28;20042;-75
2023/04/05 03:20:27;;;;;;;13.98;12.40;;;;;;;0.85;89.95;102380.00;10377230;28;20397;-77
2023/04/05 03:25:27;;;;;;;23.35;13.35;;;;;;;0.77;90.18;102388.50;10375833;28;20052;-75
2023/04/05 03:30:28;;;;;;;16.77;10.75;;;;;;;0.65;90.22;102379.47;10393240;28;20109;-76
2023/04/05 03:35:29;;;;;;;18.70;13.35;;;;;;;0.58;90.17;102372.81;10377346;28;20460;-76
2023/04/05 03:40:29;;;;;;;16.65;12.60;;;;;;;0.59;90.36;102374.53;10377000;28;20061;-75
2023/04/05 03:45:29;;;;;;;20.10;13.43;;;;;;;0.58;90.52;102375.47;10374450;28;20477;-75
2023/04/05 03:50:30;;;;;;;15.15;11.35;;;;;;;0.55;90.38;102366.81;10375526;28;20120;-78
2023/04/05 03:55:31;;;;;;;20.38;13.18;;;;;;;0.46;90.72;102352.25;10374691;28;20128;-76
2023/04/05 04:00:31;;;;;;;18.75;13.27;;;;;;;0.43;90.71;102353.31;10392057;28;20029;-75
2023/04/05 04:05:37;;;;;;;20.52;12.82;;;;;;;0.49;92.15;102352.06;10375450;28;20037;-76
2023/04/05 04:10:37;;;;;;;28.85;13.80;;;;;;;0.58;91.80;102351.50;10374930;28;20041;-76
2023/04/05 04:15:38;;;;;;;24.42;13.93;;;;;;;0.67;91.93;102353.59;10374344;28;20041;-77
2023/04/05 04:20:38;;;;;;;23.60;16.35;;;;;;;0.92;95.26;102354.66;10375026;28;20026;-78
2023/04/05 04:25:40;;;;;;;24.17;17.52;;;;;;;1.10;99.12;102342.78;10374187;28;20475;-76
2023/04/05 04:30:42;;;;;;;22.55;16.10;;;;;;;1.19;100.00;102346.69;10373406;28;20030;-76
2023/04/05 04:35:45;;;;;;;27.02;19.17;;;;;;;1.25;100.00;102356.94;10374950;28;20050;-76
2023/04/05 04:40:46;;;;;;;22.17;17.10;;;;;;;1.26;100.00;102344.47;10375898;28;20219;-76
2023/04/05 04:45:47;;;;;;;23.85;16.30;;;;;;;1.24;100.00;102346.38;10373355;28;20041;-77
2023/04/05 04:50:48;;;;;;;23.52;16.85;;;;;;;1.18;100.00;102350.28;10375171;28;20037;-76
2023/04/05 04:55:49;;;;;;;20.55;14.20;;;;;;;1.14;100.00;102348.78;10389029;28;20030;-77
2023/04/05 05:00:51;;;;;;;25.70;15.68;;;;;;;1.14;100.00;102352.31;10374487;28;20104;-78
2023/04/05 05:05:52;;;;;;;19.73;14.15;;;;;;;1.19;100.00;102337.81;10374661;28;20058;-78
2023/04/05 05:10:53;;;;;;;17.17;14.15;;;;;;;1.19;100.00;102352.03;10373813;28;20030;-77
2023/04/05 05:15:53;;;;;;;21.88;15.55;;;;;;;1.16;100.00;102350.41;10373989;28;20037;-78
2023/04/05 05:20:53;;;;;;;23.50;13.00;;;;;;;1.04;99.08;102358.34;10375101;28;20066;-79
2023/04/05 05:26:00;;;;;;;19.65;14.85;;;;;;;0.98;98.70;102361.41;10372772;28;20042;-78
2023/04/05 05:31:00;;;;;;;;;;;;;;;1.00;98.73;102360.38;10391511;28;20038;-78
2023/04/05 05:36:02;;;;;;;16.42;12.20;;;;;;;1.07;98.39;102372.34;10372598;28;20304;-78
2023/04/05 05:41:02;;;;;;;18.00;12.93;;;;;;;1.14;98.60;102370.97;10373357;28;20038;-78
2023/04/05 05:46:03;;;;;;;21.08;13.02;;;;;;;1.29;99.16;102378.94;10359409;28;20394;-78
2023/04/05 05:51:08;;;;;;;22.08;15.13;;;;;;;1.46;99.94;102381.34;10377177;28;20041;-79
2023/04/05 05:56:08;;;;;;;20.47;15.10;;;;;;;1.71;100.00;102379.72;10373860;28;20382;-78
2023/04/05 06:01:10;;;;;;;21.52;16.08;;;;;;;1.85;99.90;102376.94;10375790;28;20044;-79
2023/04/05 06:06:11;;;;;;;21.58;15.57;;;;;;;2.62;100.00;102372.47;10379683;28;20068;-79
2023/04/05 06:11:21;;;;;;;25.38;15.93;;;;;;;3.99;100.00;102368.56;10380838;28;20156;-79
2023/04/05 06:16:22;;;;;;;22.73;16.77;;;;;;;4.99;100.00;102350.75;10379151;28;20034;-79
2023/04/05 06:21:22;;;;;;;26.55;17.95;;;;;;;5.70;100.00;102347.53;10361590;28;20030;-79
2023/04/05 06:26:26;;;;;;;19.90;14.15;;;;;;;6.26;100.00;102358.00;10379205;28;20050;-78
2023/04/05 06:31:29;;;;;;;19.42;15.00;;;;;;;6.84;100.00;102347.47;10377723;28;20029;-79
2023/04/05 06:36:33;;;;;;;15.75;11.25;;;;;;;7.31;100.00;102344.16;10393334;28;20081;-79
2023/04/05 06:41:34;;;;;;;21.60;11.75;;;;;;;7.62;100.00;102350.22;10378933;28;20054;-79
2023/04/05 06:46:35;;;;;;;12.43;10.98;;;;;;;8.18;100.00;102351.31;10378950;28;20386;-79
2023/04/05 06:51:35;;;;;;;13.80;10.88;;;;;;;8.71;100.00;102342.59;10377378;28;20030;-79
2023/04/05 06:56:35;;;;;;;17.50;13.02;;;;;;;9.34;97.17;102339.06;10377889;28;20049;-80
2023/04/05 07:01:36;;;;;;;18.33;13.68;;;;;;;10.27;93.47;102337.63;10377673;28;20088;-79
2023/04/05 07:06:37;;;;;;;18.95;12.18;;;;;;;10.59;87.33;102338.81;10360102;28;20474;-79
2023/04/05 07:11:38;;;;;;;20.15;12.63;;;;;;;10.72;79.24;102341.94;10375793;28;20037;-79
2023/04/05 07:16:39;;;;;;;15.18;11.85;;;;;;;11.00;76.93;102337.09;10392989;28;20374;-79
2023/04/05 07:21:39;;;;;;;11.30;10.05;;;;;;;11.50;66.88;102338.03;10376835;28;20032;-78
2023/04/05 07:26:40;;;;;;;18.50;12.02;;;;;;;11.50;65.69;102340.75;10375377;28;20448;-78
2023/04/05 07:31:40;;;;;;;21.45;11.20;;;;;;;12.12;68.18;102334.81;10375289;28;20096;-78
2023/04/05 07:36:41;;;;;;;14.52;10.80;;;;;;;12.21;61.39;102336.50;10357834;28;20109;-79
2023/04/05 07:41:43;;;;;;;13.23;10.27;;;;;;;12.26;59.07;102318.66;10376958;28;20046;-79
2023/04/05 07:46:44;;;;;;;11.82;10.63;;;;;;;12.56;58.97;102321.59;10375972;28;20085;-79
2023/04/05 07:51:46;;;;;;;14.40;11.20;;;;;;;13.05;59.30;102307.78;10376674;28;20034;-78
2023/04/05 07:56:48;;;;;;;14.90;10.65;;;;;;;13.49;62.24;102309.88;10375248;28;20140;-78
2023/04/05 08:01:48;;;;;;;13.68;10.20;;;;;;;13.88;58.10;102319.72;10375425;28;20492;-78
2023/04/05 08:06:49;;;;;;;10.80;9.68;;;;;;;14.18;51.04;102310.59;10390574;28;20041;-78
2023/04/05 08:11:49;;;;;;;16.45;11.88;;;;;;;14.68;56.88;102307.28;10390352;28;20089;-78
2023/04/05 08:16:50;;;;;;;13.65;9.77;;;;;;;14.76;54.48;102310.78;10376871;28;20073;-78
2023/04/05 08:21:51;;;;;;;10.80;8.85;;;;;;;15.25;55.09;102298.28;10389861;28;20099;-78
2023/04/05 08:26:52;;;;;;;17.50;11.10;;;;;;;15.29;48.39;102310.53;10372713;28;20112;-78
2023/04/05 08:31:55;;;;;;;18.25;10.68;;;;;;;15.22;51.88;102306.88;10374413;28;20037;-78
2023/04/05 08:36:59;;;;;;;23.67;11.35;;;;;;;15.69;54.35;102303.56;10377053;28;20068;-78
2023/04/05 08:42:03;;;;;;;17.25;10.57;;;;;;;16.35;55.20;102305.94;10373132;28;20520;-78
2023/04/05 08:47:03;;;;;;;11.98;9.80;;;;;;;17.11;55.32;102289.44;10374301;28;20042;-78
2023/04/05 08:52:04;;;;;;;13.32;8.85;;;;;;;16.61;46.76;102290.72;10373739;28;20026;-79
2023/04/05 08:57:06;;;;;;;17.08;10.68;;;;;;;16.32;40.65;102292.69;10373769;28;20029;-78
2023/04/05 09:02:15;;;;;;;15.60;9.65;;;;;;;16.84;50.38;102298.63;10371895;28;20037;-78
2023/04/05 09:07:15;;;;;;;9.65;7.93;;;;;;;18.01;51.13;102297.31;10374701;28;20037;-78
2023/04/05 09:12:15;;;;;;;13.85;9.30;;;;;;;18.14;51.12;102283.59;10372652;28;20076;-78
2023/04/05 09:17:16;;;;;;;10.13;8.30;;;;;;;18.27;50.93;102290.94;10373705;28;20060;-78
2023/04/05 09:22:17;;;;;;;17.05;9.50;;;;;;;18.01;46.80;102287.19;10388472;28;20092;-78
2023/04/05 09:27:18;;;;;;;19.98;10.32;;;;;;;17.52;44.77;102282.97;10373889;28;20117;-78
2023/04/05 09:32:20;;;;;;;15.88;9.82;;;;;;;17.56;40.58;102281.50;10371922;28;20037;-78
2023/04/05 09:37:21;;;;;;;9.20;8.25;;;;;;;17.31;44.54;102270.31;10377633;28;20570;-77
2023/04/05 09:42:22;;;;;;;13.13;8.45;;;;;;;17.83;43.62;102279.59;10396116;28;20046;-77
2023/04/05 09:47:24;;;;;;;13.23;9.70;;;;;;;17.24;38.72;102266.72;10379283;28;20466;-78
2023/04/05 09:52:25;;;;;;;15.55;9.75;;;;;;;16.82;34.98;102279.69;10380032;28;20029;-78
2023/04/05 09:57:26;;;;;;;14.50;10.63;;;;;;;17.05;35.41;102273.84;10395193;28;20038;-79
2023/04/05 10:02:35;;;;;;;11.07;9.40;;;;;;;17.07;33.52;102263.56;10378553;28;20083;-78
2023/04/05 10:07:36;;;;;;;17.85;12.25;;;;;;;17.39;42.02;102264.66;10379804;28;20118;-77
2023/04/05 10:12:40;;;;;;;13.43;10.70;;;;;;;17.99;38.50;102256.41;10379815;28;20445;-79
2023/04/05 10:18:01;;;;;;;18.40;10.43;;;;;;;18.09;41.82;102242.25;10377702;28;20034;-78
2023/04/05 10:23:20;;;;;;;14.63;10.13;;;;;;;18.57;39.13;102239.16;10394839;28;20140;-81
2023/04/05 10:28:26;;;;;;;17.75;10.15;;;;;;;18.17;34.26;102246.69;10378898;28;20036;-79
2023/04/05 10:33:46;;;;;;;13.10;9.70;;;;;;;17.16;33.20;102248.59;10379725;28;20057;-79
2023/04/05 10:39:11;;;;;;;11.30;10.15;;;;;;;17.33;36.41;102237.25;10363101;28;20042;-78
2023/04/05 10:44:11;;;;;;;13.85;8.68;;;;;;;17.47;34.10;102229.88;10378962;28;20370;-79
2023/04/05 10:49:22;;;;;;;20.40;11.15;;;;;;;17.68;33.25;102226.94;10394085;28;20069;-78
2023/04/05 10:54:22;;;;;;;11.13;9.90;;;;;;;18.18;38.06;102234.63;10393282;28;20026;-78
2023/04/05 10:59:23;;;;;;;13.57;10.82;;;;;;;18.44;37.38;102222.72;10378355;28;20421;-80
2023/04/05 11:04:23;;;;;;;13.07;10.00;;;;;;;17.85;37.68;102222.69;10393048;28;20069;-79
2023/04/05 11:09:24;;;;;;;13.75;10.85;;;;;;;18.01;33.86;102215.09;10359972;28;20512;-79
2023/04/05 11:14:34;;;;;;;12.93;9.88;;;;;;;16.78;32.47;102215.47;10376155;28;20109;-79
2023/04/05 11:19:44;;;;;;;15.43;9.82;;;;;;;16.84;37.49;102211.06;10375937;28;20065;-79
2023/04/05 11:24:52;;;;;;;13.45;10.43;;;;;;;18.18;35.94;102209.97;10378126;28;20036;-79
2023/04/05 11:29:53;;;;;;;14.10;10.65;;;;;;;18.68;37.48;102204.69;10391735;28;20038;-78
2023/04/05 11:34:58;;;;;;;12.70;10.73;;;;;;;19.02;36.85;102201.53;10375208;28;20041;-78
2023/04/05 11:40:28;;;;;;;11.30;9.85;;;;;;;17.85;32.31;102199.94;10375164;28;20041;-78
2023/04/05 11:45:31;;;;;;;16.33;11.05;;;;;;;16.88;30.96;102195.91;10375681;28;20117;-80
2023/04/05 11:50:32;;;;;;;15.95;11.32;;;;;;;16.19;33.12;102180.53;10376017;28;20382;-79
2023/04/05 11:55:32;;;;;;;14.68;10.32;;;;;;;16.74;33.24;102176.72;10375808;28;20041;-80
2023/04/05 12:00:33;;;;;;;14.18;10.45;;;;;;;17.30;35.53;102170.06;10374582;28;20526;-79
2023/04/05 12:05:49;;;;;;;10.70;9.43;;;;;;;17.82;30.61;102179.28;10374895;28;20042;-78
2023/04/05 12:10:56;;;;;;;12.27;9.95;;;;;;;17.67;32.28;102159.47;10375178;28;20030;-79
2023/04/05 12:16:04;;;;;;;15.65;9.73;;;;;;;18.18;36.71;102158.72;10375594;28;20129;-80
2023/04/05 12:21:07;;;;;;;14.32;8.95;;;;;;;16.92;37.04;102146.06;10373664;28;20030;-79
2023/04/05 12:26:07;;;;;;;14.65;9.90;;;;;;;16.16;33.63;102145.44;10389804;28;20069;-79
2023/04/05 12:31:09;;;;;;;15.35;10.95;;;;;;;16.83;33.19;102152.78;10375049;28;20390;-79
2023/04/05 12:36:10;;;;;;;13.95;9.80;;;;;;;16.88;33.94;102141.19;10374912;28;20389;-78
2023/04/05 12:41:10;;;;;;;12.68;10.27;;;;;;;16.92;36.40;102140.59;10389306;28;20038;-81
2023/04/05 12:46:15;;;;;;;18.30;10.50;;;;;;;17.12;38.32;102137.00;10374248;28;20417;-79
2023/04/05 12:51:16;;;;;;;13.52;11.48;;;;;;;17.60;39.18;102126.63;10389194;28;20030;-80
2023/04/05 12:56:16;;;;;;;11.00;9.73;;;;;;;18.12;40.12;102121.19;10388998;28;20124;-80
2023/04/05 13:01:17;;;;;;;12.73;9.00;;;;;;;18.63;41.10;102120.28;10373069;28;20490;-81
2023/04/05 13:06:18;;;;;;;14.68;11.00;;;;;;;18.80;40.93;102115.13;10374874;28;20034;-81
2023/04/05 13:11:18;;;;;;;14.30;10.18;;;;;;;19.02;40.94;102118.34;10392787;28;20062;-80
2023/04/05 13:16:19;;;;;;;19.58;10.20;;;;;;;18.52;39.85;102107.28;10381572;28;20112;-79
2023/04/05 13:21:19;;;;;;;15.80;10.70;;;;;;;18.30;42.36;102104.03;10380938;28;20481;-79
2023/04/05 13:26:20;;;;;;;16.67;10.95;;;;;;;18.35;43.10;102096.00;10380373;28;20034;-80
2023/04/05 13:31:21;;;;;;;13.32;10.48;;;;;;;18.08;42.42;102082.41;10382166;28;20034;-79
2023/04/05 13:36:21;;;;;;;14.30;11.55;;;;;;;18.51;41.24;102072.69;10382447;28;20054;-78
2023/04/05 13:41:21;;;;;;;15.00;11.48;;;;;;;17.81;42.66;102078.13;10380589;28;20037;-78
2023/04/05 13:46:22;;;;;;;22.35;12.88;;;;;;;17.49;39.21;102075.25;10380483;28;20053;-80
2023/04/05 13:51:22;;;;;;;17.55;11.82;;;;;;;17.03;38.53;102065.22;10380888;28;20117;-79
2023/04/05 13:56:23;;;;;;;13.68;12.23;;;;;;;17.49;41.24;102067.03;10381304;28;20037;-78
2023/04/05 14:01:23;;;;;;;17.80;11.23;;;;;;;17.93;42.17;102057.19;10379294;28;20044;-79
2023/04/05 14:06:23;;;;;;;23.02;12.70;;;;;;;18.06;40.51;102059.88;10362807;28;20037;-81
2023/04/05 14:11:24;;;;;;;17.88;12.13;;;;;;;18.35;42.18;102052.13;10379246;28;20045;-80
2023/04/05 14:16:25;;;;;;;21.35;13.80;;;;;;;18.36;43.13;102045.56;10378220;28;20036;-79
2023/04/05 14:21:26;;;;;;;15.02;12.10;;;;;;;18.22;43.77;102038.47;10394038;28;20053;-81
2023/04/05 14:26:26;;;;;;;17.70;12.75;;;;;;;17.93;39.47;102027.03;10379894;28;20038;-79
2023/04/05 14:31:27;;;;;;;19.17;13.82;;;;;;;17.78;43.81;102032.81;10380192;28;20068;-80
2023/04/05 14:36:27;;;;;;;28.05;17.05;;;;;;;17.14;45.52;102022.69;10377260;28;20078;-80
2023/04/05 14:41:28;;;;;;;19.58;14.95;;;;;;;16.97;46.07;102014.06;10378959;28;20185;-79
2023/04/05 14:46:28;;;;;;;18.25;12.68;;;;;;;16.28;46.33;102012.59;10378884;28;20536;-78
2023/04/05 14:51:30;;;;;;;32.50;14.05;;;;;;;15.94;45.10;102006.22;10393390;28;20025;-84
2023/04/05 14:56:30;;;;;;;33.22;14.40;;;;;;;15.68;46.75;102000.66;10378016;28;20033;-79
2023/04/05 15:01:31;;;;;;;23.67;15.02;;;;;;;15.08;46.18;102003.06;10378189;28;20074;-78
2023/04/05 15:06:31;;;;;;;23.02;17.05;;;;;;;14.80;46.54;101997.63;10393834;28;20038;-79
2023/04/05 15:11:34;;;;;;;36.30;17.98;;;;;;;14.38;47.26;102002.06;10361939;28;20034;-78
2023/04/05 15:16:34;;;;;;;29.02;17.48;;;;;;;13.99;47.57;101994.38;10376266;28;20465;-79
2023/04/05 15:21:35;;;;;;;26.08;15.02;;;;;;;13.67;47.74;101991.91;10376464;28;20033;-78
2023/04/05 15:26:35;;;;;;;32.55;17.35;;;;;;;13.30;48.18;101984.75;10377416;28;20038;-80
2023/04/05 15:31:36;;;;;;;26.73;16.48;;;;;;;12.91;48.03;101983.13;10376286;28;20058;-79
2023/04/05 15:36:36;;;;;;;29.55;17.38;;;;;;;12.75;48.37;101992.28;10376589;28;20490;-79
2023/04/05 15:41:37;;;;;;;27.50;17.00;;;;;;;12.53;48.12;101974.16;10376315;28;20485;-78
2023/04/05 15:46:37;;;;;;;31.60;18.85;;;;;;;12.32;48.20;101977.59;10392232;28;20061;-79
2023/04/05 15:51:37;;;;;;;31.33;17.73;;;;;;;12.13;48.33;101967.22;10376132;28;20060;-79
2023/04/05 15:56:38;;;;;;;24.20;15.88;;;;;;;12.01;48.72;101974.94;10391435;28;20450;-79
2023/04/05 16:01:39;;;;;;;34.90;18.27;;;;;;;11.80;49.13;101965.53;10391956;28;20124;-79
2023/04/05 16:06:39;;;;;;;42.75;20.05;;;;;;;11.58;49.18;101963.63;10359794;28;20095;-79
2023/04/05 16:11:40;;;;;;;34.65;18.65;;;;;;;11.48;49.30;101952.16;10374361;28;20030;-79
2023/04/05 16:16:40;;;;;;;34.30;16.98;;;;;;;11.40;49.63;101966.63;10374920;28;20091;-79
2023/04/05 16:21:40;;;;;;;31.08;17.50;;;;;;;11.31;49.80;101971.22;10375771;28;20053;-79
2023/04/05 16:26:41;;;;;;;28.85;16.60;;;;;;;11.13;50.07;101951.66;10375555;28;20034;-78
2023/04/05 16:31:45;;;;;;;30.83;16.88;;;;;;;11.06;50.06;101948.78;10374571;28;20101;-79
2023/04/05 16:36:46;;;;;;;28.40;17.85;;;;;;;10.96;50.59;101950.88;10373950;28;20095;-79
2023/04/05 16:41:46;;;;;;;29.00;17.20;;;;;;;10.75;50.81;101945.16;10374865;28;20037;-79
2023/04/05 16:46:47;;;;;;;20.70;16.08;;;;;;;10.61;50.96;101950.28;10390114;28;20041;-78
2023/04/05 16:51:47;;;;;;;27.80;18.00;;;;;;;10.45;51.23;101947.59;10372994;28;20061;-80
2023/04/05 16:56:48;;;;;;;26.27;16.40;;;;;;;10.32;51.17;101942.69;10375121;28;20121;-78
2023/04/05 17:01:48;;;;;;;27.50;16.48;;;;;;;10.15;51.19;101949.94;10372825;28;20054;-78
2023/04/05 17:06:49;;;;;;;37.10;18.58;;;;;;;10.04;51.61;101944.88;10372715;28;20119;-79
2023/04/05 17:11:49;;;;;;;23.02;15.77;;;;;;;9.90;51.78;101949.09;10371860;28;20037;-78
2023/04/05 17:16:50;;;;;;;34.70;19.17;;;;;;;9.74;51.93;101949.91;10374955;28;20061;-79
2023/04/05 17:21:50;;;;;;;29.27;17.25;;;;;;;9.60;51.70;101947.84;10371721;28;20069;-78
2023/04/05 17:26:51;;;;;;;29.83;17.40;;;;;;;9.46;52.54;101948.50;10374081;28;20144;-78
2023/04/05 17:31:51;;;;;;;29.08;17.65;;;;;;;9.31;52.66;101945.56;10373231;28;20121;-79
2023/04/05 17:36:52;;;;;;;29.08;18.92;;;;;;;9.16;52.79;101945.34;10372288;28;20133;-79
2023/04/05 17:41:55;;;;;;;36.08;20.35;;;;;;;9.04;52.88;101942.09;10374087;28;20058;-79
2023/04/05 17:46:56;;;;;;;36.63;20.27;;;;;;;8.86;53.17;101938.59;10373008;28;20036;-79
2023/04/05 17:51:56;;;;;;;36.35;19.98;;;;;;;8.80;53.75;101940.09;10372841;28;20207;-79
2023/04/05 17:56:57;;;;;;;27.67;18.52;;;;;;;8.72;54.13;101944.63;10373808;28;20483;-79
2023/04/05 18:01:57;;;;;;;37.88;20.52;;;;;;;8.53;53.87;101943.81;10381310;28;20124;-78
2023/04/05 18:06:58;;;;;;;33.38;19.42;;;;;;;8.43;54.27;101936.84;10381389;28;20069;-79
2023/04/05 18:11:58;;;;;;;33.47;20.42;;;;;;;8.22;54.59;101940.69;10379615;28;20041;-79
2023/04/05 18:16:59;;;;;;;39.85;19.98;;;;;;;8.05;54.97;101933.47;10378590;28;20034;-78
2023/04/05 18:22:00;;;;;;;31.00;18.95;;;;;;;7.86;61.07;101929.09;10379681;28;20069;-78
2023/04/05 18:27:00;;;;;;;35.70;22.08;;;;;;;7.73;63.84;101939.41;10379860;28;20038;-78
2023/04/05 18:32:01;;;;;;;45.35;23.17;;;;;;;7.56;60.75;101943.78;10379819;28;20030;-78
2023/04/05 18:37:01;;;;;;;32.00;21.65;;;;;;;7.36;59.82;101943.91;10377058;28;20410;-76
2023/04/05 18:42:02;;;;;;;37.80;19.63;;;;;;;7.22;59.79;101947.94;10394957;28;20080;-79
2023/04/05 18:47:03;;;;;;;30.42;18.35;;;;;;;7.03;60.09;101956.13;10393950;28;20126;-75
2023/04/05 18:52:04;;;;;;;38.58;21.48;;;;;;;6.92;60.06;101950.91;10377167;28;20440;-75
2023/04/05 18:57:05;;;;;;;41.55;20.83;;;;;;;6.83;60.05;101955.38;10378621;28;20087;-79
2023/04/05 19:02:05;;;;;;;34.65;21.35;;;;;;;6.78;60.83;101959.47;10393084;28;20465;-78
2023/04/05 19:07:06;;;;;;;53.85;30.30;;;;;;;6.62;61.07;101957.41;10376807;28;20128;-79
2023/04/05 19:12:06;;;;;;;47.75;22.60;;;;;;;6.57;62.06;101960.50;10359861;28;20588;-78
2023/04/05 19:17:10;;;;;;;40.05;21.60;;;;;;;6.53;64.72;101959.13;10376888;28;20124;-76
2023/04/05 19:22:10;;;;;;;36.47;22.38;;;;;;;6.52;66.74;101952.03;10377251;28;20045;-78
2023/04/05 19:27:11;;;;;;;35.47;23.55;;;;;;;6.55;65.86;101949.06;10377130;28;20478;-76
2023/04/05 19:32:11;;;;;;;41.25;22.17;;;;;;;6.41;64.11;101949.50;10376700;28;20429;-76
2023/04/05 19:37:12;;;;;;;37.75;22.05;;;;;;;6.23;64.35;101947.56;10391161;28;20469;-76
2023/04/05 19:42:12;;;;;;;45.35;21.30;;;;;;;6.17;64.64;101940.06;10375560;28;20099;-78
2023/04/05 19:47:13;;;;;;;39.42;23.95;;;;;;;6.11;65.33;101948.69;10376249;28;20053;-80
2023/04/05 19:52:45;;;;;;;37.42;20.05;;;;;;;6.06;64.42;101937.50;10376279;28;20103;-75
2023/04/05 19:57:45;;;;;;;36.65;21.70;;;;;;;5.96;64.95;101932.13;10375862;28;20073;-77
2023/04/05 20:02:46;;;;;;;41.50;22.58;;;;;;;5.95;65.47;101934.97;10374905;28;20041;-77
2023/04/05 20:07:46;;;;;;;35.38;22.63;;;;;;;5.90;65.51;101931.81;10375001;28;20080;-76
2023/04/05 20:12:47;;;;;;;47.08;25.42;;;;;;;5.92;67.70;101924.47;10376523;28;20062;-76
2023/04/05 20:17:47;;;;;;;50.28;24.33;;;;;;;5.98;72.47;101918.56;10374375;28;20532;-76
2023/04/05 20:22:48;;;;;;;38.30;23.98;;;;;;;6.10;75.24;101914.75;10373620;28;20144;-76
2023/04/05 20:27:49;;;;;;;38.88;23.30;;;;;;;6.11;83.20;101908.38;10392170;28;20097;-75
2023/04/05 20:32:50;;;;;;;30.35;19.05;;;;;;;6.17;85.15;101896.19;10357854;28;20057;-75
2023/04/05 20:37:51;;;;;;;39.42;23.60;;;;;;;6.18;84.19;101895.19;10390630;28;20030;-77
2023/04/05 20:42:51;;;;;;;38.72;23.77;;;;;;;6.16;84.18;101900.72;10373631;28;20542;-77
2023/04/05 20:47:51;;;;;;;32.67;20.75;;;;;;;6.14;87.01;101891.94;10373535;28;20065;-76
2023/04/05 20:52:52;;;;;;;39.65;22.40;;;;;;;6.17;88.22;101891.66;10374704;28;20121;-77
2023/04/05 20:57:52;;;;;;;39.55;23.75;;;;;;;6.18;86.86;101887.13;10372270;28;20494;-77
2023/04/05 21:02:53;;;;;;;39.20;23.00;;;;;;;6.13;85.52;101881.34;10373709;28;20462;-78
2023/04/05 21:07:53;;;;;;;44.30;25.10;;;;;;;6.11;86.15;101870.72;10389743;28;20029;-76
2023/04/05 21:12:54;;;;;;;40.45;22.98;;;;;;;6.09;85.13;101867.31;10373370;28;20065;-77
2023/04/05 21:17:54;;;;;;;39.97;24.65;;;;;;;6.06;84.54;101862.22;10372722;28;20037;-77
2023/04/05 21:22:56;;;;;;;42.67;25.15;;;;;;;6.08;82.36;101857.56;10373421;28;20042;-75
2023/04/05 21:27:58;;;;;;;43.92;26.88;;;;;;;6.04;82.39;101848.09;10374694;28;20065;-76
2023/04/05 21:32:58;;;;;;;41.65;24.58;;;;;;;6.06;84.26;101848.78;10381223;28;20038;-76
2023/04/05 21:37:59;;;;;;;44.13;25.85;;;;;;;6.09;84.04;101844.97;10383343;28;20065;-78
2023/04/05 21:42:59;;;;;;;44.65;27.05;;;;;;;6.09;82.71;101843.09;10382877;28;20160;-76
2023/04/05 21:48:00;;;;;;;33.90;20.70;;;;;;;6.03;82.29;101835.63;10381048;28;20116;-77
2023/04/05 21:53:00;;;;;;;40.38;25.35;;;;;;;6.04;82.29;101848.09;10381385;28;20125;-77
2023/04/05 21:58:01;;;;;;;34.83;24.15;;;;;;;6.01;84.64;101848.38;10380718;28;20060;-78
2023/04/05 22:03:01;;;;;;;38.75;24.65;;;;;;;6.03;84.00;101847.25;10381117;28;20129;-77
2023/04/05 22:08:02;;;;;;;38.90;23.95;;;;;;;6.02;83.52;101842.00;10381303;28;20033;-77
2023/04/05 22:13:02;;;;;;;48.10;27.02;;;;;;;6.00;83.72;101834.09;10378910;28;20569;-77
2023/04/05 22:18:04;;;;;;;38.05;22.80;;;;;;;5.99;84.67;101826.16;10381756;28;20034;-77
2023/04/05 22:23:05;;;;;;;40.60;26.17;;;;;;;5.99;86.29;101834.22;10379939;28;20486;-77
2023/04/05 22:28:05;;;;;;;49.33;28.40;;;;;;;5.98;87.88;101822.63;10380062;28;20042;-77
2023/04/05 22:33:06;;;;;;;39.13;25.40;;;;;;;6.01;90.34;101816.97;10394086;28;20054;-77
2023/04/05 22:38:06;;;;;;;44.55;28.63;;;;;;;6.03;92.05;101820.38;10378753;28;20398;-77
2023/04/05 22:43:08;;;;;;;48.70;26.77;;;;;;;6.04;88.64;101813.13;10377500;28;20034;-77
2023/04/05 22:48:08;;;;;;;48.17;25.52;;;;;;;6.08;89.39;101811.00;10378161;28;20169;-77